createdAt,value
2023-05-14T00:00:55.212Z,99.41
2023-05-14T00:03:56.993Z,99.27
2023-05-14T00:06:58.961Z,99.46
2023-05-14T00:10:00.690Z,99.73
2023-05-14T00:13:02.659Z,99.65
2023-05-14T00:16:04.578Z,100.00
2023-05-14T00:19:06.576Z,99.98
2023-05-14T00:22:09.140Z,99.95
2023-05-14T00:25:11.021Z,100.00
2023-05-14T00:28:12.608Z,100.00
2023-05-14T00:31:14.171Z,100.00
2023-05-14T00:34:15.835Z,100.00
2023-05-14T00:37:17.467Z,100.00
2023-05-14T00:40:19.943Z,100.00
2023-05-14T00:43:22.653Z,100.00
2023-05-14T00:46:24.485Z,100.00
2023-05-14T00:49:26.680Z,100.00
2023-05-14T00:52:28.397Z,100.00
2023-05-14T00:55:31.052Z,100.00
2023-05-14T00:58:32.643Z,99.75
2023-05-14T01:01:34.428Z,99.14
2023-05-14T01:04:36.607Z,99.58
2023-05-14T01:07:59.762Z,99.54
2023-05-14T01:11:27.824Z,99.59
2023-05-14T01:14:52.616Z,99.34
2023-05-14T01:18:02.557Z,98.59
2023-05-14T01:21:04.331Z,98.34
2023-05-14T01:24:06.950Z,98.85
2023-05-14T01:27:23.535Z,98.79
2023-05-14T01:30:50.787Z,98.68
2023-05-14T01:33:54.510Z,98.38
2023-05-14T01:36:57.709Z,98.19
2023-05-14T01:40:00.342Z,98.24
2023-05-14T01:43:03.466Z,98.22
2023-05-14T01:46:05.318Z,98.14
2023-05-14T01:49:07.183Z,98.09
2023-05-14T01:52:09.149Z,98.37
2023-05-14T01:55:11.527Z,97.82
2023-05-14T01:58:13.504Z,97.75
2023-05-14T02:01:15.211Z,98.37
2023-05-14T02:04:16.988Z,97.98
2023-05-14T02:07:18.735Z,97.16
2023-05-14T02:10:21.266Z,97.20
2023-05-14T02:13:26.682Z,97.60
2023-05-14T02:16:28.376Z,97.35
2023-05-14T02:19:30.539Z,97.64
2023-05-14T02:22:32.625Z,98.07
2023-05-14T02:25:34.521Z,97.36
2023-05-14T02:28:36.126Z,97.07
2023-05-14T02:31:37.879Z,97.18
2023-05-14T02:34:39.473Z,97.26
2023-05-14T02:37:41.318Z,96.70
2023-05-14T02:40:42.895Z,97.63
2023-05-14T02:43:44.473Z,97.58
2023-05-14T02:46:46.554Z,97.52
2023-05-14T02:49:48.178Z,97.24
2023-05-14T02:52:49.808Z,97.39
2023-05-14T02:55:51.432Z,97.48
2023-05-14T02:58:53.135Z,97.64
2023-05-14T03:01:55.336Z,97.58
2023-05-14T03:04:57.502Z,97.81
2023-05-14T03:07:59.076Z,98.00
2023-05-14T03:11:00.740Z,97.82
2023-05-14T03:14:03.587Z,97.50
2023-05-14T03:17:05.521Z,97.58
2023-05-14T03:20:07.545Z,97.50
2023-05-14T03:23:11.095Z,98.07
2023-05-14T03:26:13.186Z,97.45
2023-05-14T03:29:17.988Z,97.73
2023-05-14T03:32:19.754Z,97.79
2023-05-14T03:35:22.460Z,97.86
2023-05-14T03:38:24.048Z,97.67
2023-05-14T03:41:26.192Z,97.85
2023-05-14T03:44:27.848Z,98.13
2023-05-14T03:47:29.480Z,97.82
2023-05-14T03:50:32.427Z,97.67
2023-05-14T03:53:34.157Z,98.39
2023-05-14T03:56:35.821Z,97.92
2023-05-14T03:59:38.253Z,98.04
2023-05-14T04:02:39.904Z,98.13
2023-05-14T04:05:41.669Z,97.82
2023-05-14T04:08:43.223Z,98.24
2023-05-14T04:11:44.738Z,97.90
2023-05-14T04:14:46.351Z,97.62
2023-05-14T04:17:47.907Z,98.02
2023-05-14T04:20:49.762Z,98.02
2023-05-14T04:23:51.935Z,98.26
2023-05-14T04:26:53.982Z,98.46
2023-05-14T04:29:55.966Z,98.42
2023-05-14T04:32:58.230Z,98.59
2023-05-14T04:36:00.155Z,98.33
2023-05-14T04:39:02.422Z,98.58
2023-05-14T04:42:04.492Z,98.42
2023-05-14T04:45:07.335Z,98.13
2023-05-14T04:48:09.457Z,98.69
2023-05-14T04:51:11.639Z,98.35
2023-05-14T04:54:13.325Z,98.32
2023-05-14T04:57:16.489Z,98.51
2023-05-14T05:00:19.236Z,98.11
2023-05-14T05:03:21.389Z,98.38
2023-05-14T05:06:23.340Z,97.58
2023-05-14T05:09:24.919Z,98.16
2023-05-14T05:12:30.015Z,97.63
2023-05-14T05:15:31.880Z,97.18
2023-05-14T05:18:33.783Z,97.40
2023-05-14T05:21:36.320Z,96.91
2023-05-14T05:24:38.386Z,97.08
2023-05-14T05:27:40.092Z,97.32
2023-05-14T05:30:41.733Z,96.62
2023-05-14T05:33:44.857Z,96.88
2023-05-14T05:36:46.396Z,96.71
2023-05-14T05:39:48.322Z,96.58
2023-05-14T05:42:50.332Z,96.07
2023-05-14T05:45:52.674Z,96.06
2023-05-14T05:48:56.166Z,96.01
2023-05-14T05:51:58.323Z,95.97
2023-05-14T05:55:01.056Z,95.70
2023-05-14T05:58:03.116Z,95.36
2023-05-14T06:01:05.150Z,95.62
2023-05-14T06:04:06.818Z,95.12
2023-05-14T06:07:08.405Z,95.21
2023-05-14T06:10:10.333Z,95.81
2023-05-14T06:13:12.298Z,95.15
2023-05-14T06:16:14.513Z,95.30
2023-05-14T06:19:16.285Z,94.82
2023-05-14T06:22:20.047Z,94.79
2023-05-14T06:25:22.169Z,95.31
2023-05-14T06:28:24.200Z,95.15
2023-05-14T06:31:26.883Z,95.02
2023-05-14T06:34:29.070Z,94.69
2023-05-14T06:37:30.895Z,94.67
2023-05-14T06:40:32.564Z,94.89
2023-05-14T06:43:34.650Z,94.77
2023-05-14T06:46:37.421Z,94.56
2023-05-14T06:49:39.623Z,94.95
2023-05-14T06:52:43.930Z,94.65
2023-05-14T06:55:47.845Z,94.22
2023-05-14T06:58:49.812Z,94.22
2023-05-14T07:01:52.024Z,94.18
2023-05-14T07:04:54.160Z,94.49
2023-05-14T07:07:55.802Z,94.78
2023-05-14T07:10:57.664Z,95.00
2023-05-14T07:14:00.046Z,95.78
2023-05-14T07:17:02.065Z,95.93
2023-05-14T07:20:04.083Z,96.16
2023-05-14T07:23:06.143Z,96.77
2023-05-14T07:26:08.668Z,95.88
2023-05-14T07:29:10.578Z,96.67
2023-05-14T07:32:15.465Z,95.69
2023-05-14T07:35:18.002Z,96.09
2023-05-14T07:38:20.297Z,96.30
2023-05-14T07:41:21.926Z,96.15
2023-05-14T07:44:24.838Z,95.86
2023-05-14T07:47:26.620Z,95.55
2023-05-14T07:50:29.584Z,95.91
2023-05-14T07:53:31.380Z,96.08
2023-05-14T07:56:33.444Z,94.93
2023-05-14T07:59:35.060Z,95.50
2023-05-14T08:02:37.797Z,95.81
2023-05-14T08:05:39.939Z,96.35
2023-05-14T08:08:41.922Z,96.21
2023-05-14T08:11:43.539Z,95.48
2023-05-14T08:14:45.670Z,95.22
2023-05-14T08:17:47.646Z,94.71
2023-05-14T08:20:49.250Z,94.98
2023-05-14T08:23:51.240Z,93.50
2023-05-14T08:26:53.105Z,93.36
2023-05-14T08:29:55.132Z,93.16
2023-05-14T08:32:58.739Z,92.75
2023-05-14T08:36:00.653Z,93.04
2023-05-14T08:39:02.724Z,93.29
2023-05-14T08:42:06.719Z,92.57
2023-05-14T08:45:25.720Z,92.78
2023-05-14T08:48:33.498Z,92.21
2023-05-14T08:51:35.976Z,91.10
2023-05-14T08:54:38.095Z,89.74
2023-05-14T08:57:40.326Z,90.61
2023-05-14T09:00:42.669Z,90.85
2023-05-14T09:03:45.818Z,90.06
2023-05-14T09:06:51.195Z,90.13
2023-05-14T09:09:54.997Z,89.88
2023-05-14T09:12:57.485Z,88.64
2023-05-14T09:16:03.445Z,87.71
2023-05-14T09:19:07.018Z,87.22
2023-05-14T09:22:11.519Z,87.35
2023-05-14T09:25:13.573Z,87.15
2023-05-14T09:28:19.068Z,87.17
2023-05-14T09:31:21.269Z,87.47
2023-05-14T09:34:28.682Z,86.78
2023-05-14T09:37:30.780Z,87.04
2023-05-14T09:40:32.760Z,86.66
2023-05-14T09:43:34.400Z,86.46
2023-05-14T09:46:36.247Z,85.63
2023-05-14T09:49:39.778Z,84.75
2023-05-14T09:52:42.643Z,85.04
2023-05-14T09:55:45.278Z,84.42
2023-05-14T09:58:46.940Z,83.82
2023-05-14T10:01:49.934Z,83.61
2023-05-14T10:04:54.435Z,83.43
2023-05-14T10:07:59.700Z,82.91
2023-05-14T10:11:06.900Z,82.82
2023-05-14T10:14:08.844Z,82.71
2023-05-14T10:17:18.453Z,83.70
2023-05-14T10:20:22.943Z,83.03
2023-05-14T10:23:25.333Z,82.75
2023-05-14T10:26:30.905Z,82.65
2023-05-14T10:29:37.554Z,82.69
2023-05-14T10:32:41.875Z,83.06
2023-05-14T10:35:55.673Z,81.61
2023-05-14T10:38:57.778Z,82.06
2023-05-14T10:42:00.176Z,82.56
2023-05-14T10:45:07.749Z,82.49
2023-05-14T10:48:09.975Z,81.91
2023-05-14T10:51:12.579Z,81.00
2023-05-14T10:54:16.941Z,80.74
2023-05-14T10:57:20.651Z,80.71
2023-05-14T11:00:27.653Z,81.13
2023-05-14T11:03:32.268Z,81.05
2023-05-14T11:06:36.568Z,80.58
2023-05-14T11:09:38.782Z,80.99
2023-05-14T11:12:43.692Z,80.75
2023-05-14T11:15:48.580Z,79.17
2023-05-14T11:19:01.945Z,78.73
2023-05-14T11:22:05.160Z,78.23
2023-05-14T11:25:08.180Z,77.28
2023-05-14T11:28:10.680Z,76.65
2023-05-14T11:31:13.037Z,76.48
2023-05-14T11:34:15.176Z,76.72
2023-05-14T11:37:17.855Z,75.67
2023-05-14T11:40:20.250Z,74.96
2023-05-14T11:43:28.454Z,75.38
2023-05-14T11:46:31.045Z,74.09
2023-05-14T11:49:35.950Z,71.87
2023-05-14T11:52:40.401Z,72.12
2023-05-14T11:55:42.137Z,71.07
2023-05-14T11:58:48.809Z,72.08
2023-05-14T12:01:52.537Z,70.55
2023-05-14T12:04:54.747Z,70.34
2023-05-14T12:07:56.765Z,70.98
2023-05-14T12:11:00.482Z,69.79
2023-05-14T12:14:02.121Z,69.46
2023-05-14T12:17:03.807Z,69.80
2023-05-14T12:20:13.037Z,70.15
2023-05-14T12:23:15.386Z,68.41
2023-05-14T12:26:16.990Z,67.96
2023-05-14T12:29:21.737Z,68.15
2023-05-14T12:32:26.363Z,68.47
2023-05-14T12:35:28.203Z,69.76
2023-05-14T12:38:31.999Z,69.10
2023-05-14T12:41:34.492Z,70.78
2023-05-14T12:44:36.447Z,69.88
2023-05-14T12:47:40.923Z,69.51
2023-05-14T12:50:42.918Z,69.38
2023-05-14T12:53:45.112Z,68.08
2023-05-14T12:56:46.752Z,68.31
2023-05-14T12:59:48.333Z,68.34
2023-05-14T13:02:50.356Z,67.90
2023-05-14T13:05:54.182Z,66.75
2023-05-14T13:08:56.783Z,66.92
2023-05-14T13:11:59.219Z,66.19
2023-05-14T13:15:01.314Z,66.07
2023-05-14T13:18:03.621Z,65.38
2023-05-14T13:21:06.801Z,65.55
2023-05-14T13:24:10.157Z,66.15
2023-05-14T13:27:12.099Z,65.61
2023-05-14T13:30:14.213Z,65.58
2023-05-14T13:33:16.334Z,63.78
2023-05-14T13:36:18.382Z,64.05
2023-05-14T13:39:22.746Z,64.45
2023-05-14T13:42:24.898Z,64.06
2023-05-14T13:45:26.895Z,62.22
2023-05-14T13:48:31.136Z,61.32
2023-05-14T13:51:33.852Z,61.03
2023-05-14T13:54:38.802Z,59.60
2023-05-14T13:57:41.800Z,60.87
2023-05-14T14:00:43.940Z,61.05
2023-05-14T14:03:46.055Z,60.92
2023-05-14T14:06:48.063Z,60.61
2023-05-14T14:09:49.715Z,59.56
2023-05-14T14:12:52.398Z,60.61
2023-05-14T14:15:54.480Z,60.41
2023-05-14T14:18:57.418Z,58.95
2023-05-14T14:21:59.576Z,58.37
2023-05-14T14:25:02.122Z,57.35
2023-05-14T14:28:10.072Z,56.72
2023-05-14T14:31:17.880Z,53.77
2023-05-14T14:34:21.556Z,53.28
2023-05-14T14:38:02.110Z,51.24
2023-05-14T14:41:10.396Z,51.38
2023-05-14T14:44:56.473Z,51.00
2023-05-14T14:47:53.399Z,51.32
2023-05-14T14:50:56.377Z,50.22
2023-05-14T14:53:57.946Z,49.63
2023-05-14T14:56:59.514Z,49.78
2023-05-14T15:00:02.782Z,48.84
2023-05-14T15:03:05.057Z,49.65
2023-05-14T15:06:07.258Z,49.29
2023-05-14T15:09:09.309Z,49.03
2023-05-14T15:12:11.190Z,49.21
2023-05-14T15:15:13.210Z,48.39
2023-05-14T15:18:15.177Z,49.38
2023-05-14T15:21:16.771Z,50.25
2023-05-14T15:24:18.899Z,47.83
2023-05-14T15:27:20.987Z,46.89
2023-05-14T15:30:23.147Z,46.12
2023-05-14T15:33:25.226Z,45.54
2023-05-14T15:36:27.078Z,44.16
2023-05-14T15:39:30.227Z,44.58
2023-05-14T15:42:32.039Z,47.11
2023-05-14T15:45:35.766Z,47.96
2023-05-14T15:48:38.122Z,45.96
2023-05-14T15:51:40.394Z,46.89
2023-05-14T15:54:46.668Z,47.31
2023-05-14T15:57:48.837Z,47.13
2023-05-14T16:00:50.497Z,47.99
2023-05-14T16:03:54.084Z,48.32
2023-05-14T16:07:04.290Z,48.03
2023-05-14T16:10:06.936Z,49.21
2023-05-14T16:13:09.146Z,49.41
2023-05-14T16:16:10.817Z,51.06
2023-05-14T16:19:13.023Z,52.32
2023-05-14T16:22:15.218Z,53.78
2023-05-14T16:25:18.695Z,53.18
2023-05-14T16:28:20.498Z,53.59
2023-05-14T16:31:22.326Z,54.29
2023-05-14T16:34:24.378Z,55.11
2023-05-14T16:37:26.007Z,54.52
2023-05-14T16:40:27.649Z,55.46
2023-05-14T16:43:29.689Z,57.19
2023-05-14T16:46:32.112Z,58.68
2023-05-14T16:49:34.340Z,59.85
2023-05-14T16:52:36.519Z,61.18
2023-05-14T16:55:38.620Z,64.36
2023-05-14T16:58:40.339Z,66.51
2023-05-14T17:01:43.310Z,69.81
2023-05-14T17:04:45.276Z,73.24
2023-05-14T17:07:47.051Z,75.00
2023-05-14T17:10:49.528Z,75.18
2023-05-14T17:13:51.607Z,77.16
2023-05-14T17:16:54.432Z,79.35
2023-05-14T17:19:56.358Z,79.36
2023-05-14T17:22:58.350Z,81.88
2023-05-14T17:26:00.058Z,81.00
2023-05-14T17:29:12.101Z,82.23
2023-05-14T17:32:20.826Z,82.66
2023-05-14T17:35:23.295Z,82.39
2023-05-14T17:38:26.602Z,83.78
2023-05-14T17:41:28.684Z,85.89
2023-05-14T17:44:30.306Z,86.58
2023-05-14T17:47:32.319Z,86.82
2023-05-14T17:50:34.552Z,87.54
2023-05-14T17:53:36.369Z,86.98
2023-05-14T17:56:38.971Z,86.91
2023-05-14T17:59:41.412Z,87.39
2023-05-14T18:02:43.030Z,87.66
2023-05-14T18:05:45.011Z,88.46
2023-05-14T18:08:46.775Z,89.12
2023-05-14T18:11:48.463Z,90.39
2023-05-14T18:14:50.769Z,90.84
2023-05-14T18:17:53.053Z,91.63
2023-05-14T18:20:56.199Z,91.87
2023-05-14T18:23:58.315Z,92.63
2023-05-14T18:27:00.451Z,94.48
2023-05-14T18:30:03.518Z,94.03
2023-05-14T18:33:05.237Z,94.48
2023-05-14T18:36:06.943Z,95.01
2023-05-14T18:39:08.607Z,94.63
2023-05-14T18:42:10.904Z,94.89
2023-05-14T18:45:12.546Z,93.94
2023-05-14T18:48:14.855Z,94.75
2023-05-14T18:51:16.876Z,93.33
2023-05-14T18:54:19.072Z,93.34
2023-05-14T18:57:22.217Z,93.73
2023-05-14T19:00:24.056Z,93.57
2023-05-14T19:03:26.063Z,92.91
2023-05-14T19:06:28.570Z,93.13
2023-05-14T19:09:31.151Z,93.92
2023-05-14T19:12:32.991Z,93.26
2023-05-14T19:15:34.670Z,94.11
2023-05-14T19:18:36.714Z,93.99
2023-05-14T19:21:38.720Z,94.62
2023-05-14T19:24:41.261Z,95.87
2023-05-14T19:27:43.074Z,96.30
2023-05-14T19:30:44.796Z,95.55
2023-05-14T19:33:47.477Z,95.46
2023-05-14T19:36:49.171Z,95.89
2023-05-14T19:39:50.784Z,96.77
2023-05-14T19:42:53.125Z,97.26
2023-05-14T19:45:54.719Z,97.21
2023-05-14T19:48:56.750Z,95.85
2023-05-14T19:51:58.677Z,95.96
2023-05-14T19:55:00.249Z,95.79
2023-05-14T19:58:01.868Z,97.54
2023-05-14T20:01:04.329Z,98.19
2023-05-14T20:04:07.358Z,97.85
2023-05-14T20:07:10.738Z,97.31
2023-05-14T20:10:15.949Z,98.07
2023-05-14T20:13:18.064Z,98.15
2023-05-14T20:16:19.756Z,97.91
2023-05-14T20:19:22.498Z,98.28
2023-05-14T20:22:24.771Z,98.70
2023-05-14T20:25:28.372Z,98.78
2023-05-14T20:28:31.920Z,98.94
2023-05-14T20:31:33.588Z,99.35
2023-05-14T20:34:35.202Z,99.85
2023-05-14T20:37:37.674Z,99.52
2023-05-14T20:40:39.573Z,99.78
2023-05-14T20:43:41.199Z,100.00
2023-05-14T20:46:43.861Z,100.00
2023-05-14T20:49:46.918Z,100.00
2023-05-14T20:52:49.936Z,100.00
2023-05-14T20:55:51.628Z,100.00
2023-05-14T20:58:53.935Z,100.00
2023-05-14T21:01:56.777Z,100.00
2023-05-14T21:04:59.263Z,100.00
2023-05-14T21:08:00.933Z,100.00
2023-05-14T21:11:02.910Z,100.00
2023-05-14T21:14:05.505Z,100.00
2023-05-14T21:17:07.205Z,100.00
2023-05-14T21:20:11.919Z,100.00
2023-05-14T21:23:13.861Z,100.00
2023-05-14T21:26:15.643Z,100.00
2023-05-14T21:29:17.275Z,100.00
2023-05-14T21:32:20.224Z,100.00
2023-05-14T21:35:23.006Z,100.00
2023-05-14T21:38:25.824Z,100.00
2023-05-14T21:41:27.814Z,100.00
2023-05-14T21:44:29.774Z,100.00
2023-05-14T21:47:32.995Z,100.00
2023-05-14T21:50:34.801Z,100.00
2023-05-14T21:53:37.418Z,100.00
2023-05-14T21:56:39.021Z,100.00
2023-05-14T21:59:40.713Z,100.00
2023-05-14T22:02:42.743Z,100.00
2023-05-14T22:05:44.377Z,100.00
2023-05-14T22:08:46.423Z,100.00
2023-05-14T22:11:48.066Z,100.00
2023-05-14T22:14:50.032Z,100.00
2023-05-14T22:17:52.056Z,100.00
2023-05-14T22:20:54.109Z,100.00
2023-05-14T22:23:56.109Z,100.00
2023-05-14T22:26:58.114Z,100.00
2023-05-14T22:30:01.254Z,100.00
2023-05-14T22:33:03.294Z,100.00
2023-05-14T22:36:07.373Z,100.00
2023-05-14T22:39:11.502Z,100.00
2023-05-14T22:42:15.304Z,100.00
2023-05-14T22:45:17.306Z,100.00
2023-05-14T22:48:18.962Z,100.00
2023-05-14T22:51:20.522Z,100.00
2023-05-14T22:54:22.374Z,100.00
2023-05-14T22:57:24.436Z,100.00
2023-05-14T23:00:26.033Z,100.00
2023-05-14T23:03:27.891Z,100.00
2023-05-14T23:06:30.215Z,100.00
2023-05-14T23:09:32.180Z,100.00
2023-05-14T23:12:33.983Z,100.00
2023-05-14T23:15:35.948Z,100.00
2023-05-14T23:18:37.767Z,100.00
2023-05-14T23:21:39.898Z,100.00
2023-05-14T23:24:41.894Z,100.00
2023-05-14T23:27:43.995Z,100.00
2023-05-14T23:30:46.151Z,100.00
2023-05-14T23:33:48.119Z,100.00
2023-05-14T23:36:50.723Z,100.00
2023-05-14T23:39:53.607Z,100.00
2023-05-14T23:42:55.662Z,100.00
2023-05-14T23:45:57.864Z,100.00
2023-05-14T23:48:59.684Z,100.00
2023-05-14T23:52:02.335Z,100.00
2023-05-14T23:55:05.060Z,100.00
2023-05-14T23:58:07.872Z,100.00
